createdAt,value
2022-09-04T00:00:19.173Z,19.56
2022-09-04T00:04:26.728Z,19.34
2022-09-04T00:09:16.136Z,19.30
2022-09-04T00:13:28.475Z,19.15
2022-09-04T00:17:34.479Z,19.31
2022-09-04T00:21:45.306Z,18.85
2022-09-04T00:25:58.528Z,19.22
2022-09-04T00:30:11.403Z,18.98
2022-09-04T00:34:42.124Z,19.26
2022-09-04T00:38:49.775Z,19.04
2022-09-04T00:43:16.997Z,19.10
2022-09-04T00:47:48.802Z,19.30
2022-09-04T00:52:10.877Z,18.98
2022-09-04T00:56:34.050Z,18.98
2022-09-04T01:00:36.434Z,19.06
2022-09-04T01:04:56.064Z,18.97
2022-09-04T01:09:12.400Z,18.81
2022-09-04T01:13:33.848Z,18.91
2022-09-04T01:18:06.616Z,18.66
2022-09-04T01:22:51.650Z,19.03
2022-09-04T01:27:08.048Z,19.23
2022-09-04T01:31:40.733Z,18.83
2022-09-04T01:36:05.755Z,18.17
2022-09-04T01:40:21.724Z,18.44
2022-09-04T01:44:23.547Z,18.95
2022-09-04T01:48:57.093Z,18.20
2022-09-04T01:53:12.679Z,17.98
2022-09-04T01:57:35.411Z,18.31
2022-09-04T02:01:44.251Z,17.60
2022-09-04T02:06:01.605Z,17.98
2022-09-04T02:10:14.472Z,17.99
2022-09-04T02:14:51.011Z,17.94
2022-09-04T02:19:18.581Z,17.73
2022-09-04T02:23:30.501Z,18.30
2022-09-04T02:27:42.916Z,17.88
2022-09-04T02:31:56.983Z,17.88
2022-09-04T02:36:19.770Z,17.60
2022-09-04T02:40:43.135Z,17.53
2022-09-04T02:45:12.676Z,17.50
2022-09-04T02:49:48.448Z,17.60
2022-09-04T02:54:16.312Z,17.23
2022-09-04T02:58:34.083Z,17.44
2022-09-04T03:02:42.339Z,17.79
2022-09-04T03:07:07.199Z,17.34
2022-09-04T03:11:19.054Z,17.11
2022-09-04T03:15:44.941Z,17.50
2022-09-04T03:19:57.127Z,17.53
2022-09-04T03:24:17.311Z,17.37
2022-09-04T03:29:21.878Z,17.22
2022-09-04T03:33:43.929Z,17.20
2022-09-04T03:37:48.414Z,17.30
2022-09-04T03:42:15.154Z,17.23
2022-09-04T03:46:29.526Z,17.39
2022-09-04T03:50:34.146Z,17.82
2022-09-04T03:54:57.079Z,17.71
2022-09-04T03:59:03.515Z,17.58
2022-09-04T04:03:20.628Z,17.53
2022-09-04T04:07:32.968Z,17.58
2022-09-04T04:12:00.064Z,17.72
2022-09-04T04:16:28.323Z,17.84
2022-09-04T04:20:44.540Z,17.76
2022-09-04T04:25:24.416Z,17.65
2022-09-04T04:29:39.708Z,17.89
2022-09-04T04:33:58.955Z,17.58
2022-09-04T04:38:15.364Z,17.82
2022-09-04T04:42:28.664Z,17.86
2022-09-04T04:46:51.674Z,17.40
2022-09-04T04:51:40.482Z,17.83
2022-09-04T04:55:59.355Z,17.75
2022-09-04T05:00:07.590Z,18.46
2022-09-04T05:04:09.255Z,17.89
2022-09-04T05:08:25.027Z,18.02
2022-09-04T05:12:44.632Z,17.68
2022-09-04T05:17:17.087Z,18.06
2022-09-04T05:21:38.020Z,18.25
2022-09-04T05:26:06.617Z,18.44
2022-09-04T05:30:20.172Z,18.21
2022-09-04T05:34:59.980Z,18.19
2022-09-04T05:39:28.079Z,17.83
2022-09-04T05:43:44.764Z,18.18
2022-09-04T05:48:33.728Z,18.51
2022-09-04T05:52:40.829Z,18.30
2022-09-04T05:56:59.325Z,18.58
2022-09-04T06:01:23.185Z,18.39
2022-09-04T06:05:43.258Z,19.15
2022-09-04T06:09:59.831Z,18.69
2022-09-04T06:14:01.273Z,18.74
2022-09-04T06:18:23.007Z,18.70
2022-09-04T06:22:47.892Z,19.31
2022-09-04T06:27:19.608Z,18.52
2022-09-04T06:31:21.062Z,19.34
2022-09-04T06:35:32.956Z,19.62
2022-09-04T06:40:03.215Z,19.93
2022-09-04T06:44:14.000Z,20.05
2022-09-04T06:48:23.695Z,20.50
2022-09-04T06:52:46.016Z,21.08
2022-09-04T06:56:59.646Z,20.55
2022-09-04T07:01:08.810Z,21.17
2022-09-04T07:05:42.193Z,20.54
2022-09-04T07:09:53.227Z,20.23
2022-09-04T07:14:07.800Z,20.73
2022-09-04T07:18:26.423Z,20.74
2022-09-04T07:22:52.291Z,20.52
2022-09-04T07:27:09.844Z,21.02
2022-09-04T07:31:24.349Z,21.00
2022-09-04T07:35:41.961Z,21.17
2022-09-04T07:40:01.047Z,20.31
2022-09-04T07:44:13.808Z,20.97
2022-09-04T07:48:23.937Z,20.95
2022-09-04T07:52:46.747Z,21.77
2022-09-04T07:57:13.804Z,22.13
2022-09-04T08:01:40.094Z,21.75
2022-09-04T08:05:51.417Z,21.38
2022-09-04T08:10:31.490Z,21.69
2022-09-04T08:14:55.600Z,21.22
2022-09-04T08:19:01.431Z,21.61
2022-09-04T08:23:41.485Z,20.96
2022-09-04T08:28:00.955Z,21.46
2022-09-04T08:32:13.762Z,21.76
2022-09-04T08:36:22.149Z,22.11
2022-09-04T08:40:42.823Z,22.29
2022-09-04T08:45:10.412Z,22.43
2022-09-04T08:49:33.669Z,22.46
2022-09-04T08:53:54.135Z,22.42
2022-09-04T08:58:09.584Z,23.01
2022-09-04T09:02:40.029Z,23.11
2022-09-04T09:07:14.038Z,22.75
2022-09-04T09:11:21.457Z,23.02
2022-09-04T09:15:48.349Z,23.55
2022-09-04T09:19:49.777Z,23.41
2022-09-04T09:24:28.037Z,23.30
2022-09-04T09:29:02.021Z,23.53
2022-09-04T09:33:49.405Z,24.02
2022-09-04T09:38:09.171Z,23.73
2022-09-04T09:42:38.417Z,24.39
2022-09-04T09:47:10.937Z,24.82
2022-09-04T09:51:37.513Z,24.62
2022-09-04T09:56:00.831Z,25.09
2022-09-04T10:00:19.830Z,24.31
2022-09-04T10:04:50.866Z,24.57
2022-09-04T10:09:22.319Z,24.15
2022-09-04T10:13:32.620Z,24.39
2022-09-04T10:17:46.207Z,23.77
2022-09-04T10:22:09.553Z,24.96
2022-09-04T10:26:48.811Z,24.82
2022-09-04T10:31:05.409Z,24.76
2022-09-04T10:35:23.127Z,25.28
2022-09-04T10:40:01.866Z,24.73
2022-09-04T10:44:24.576Z,25.35
2022-09-04T10:48:37.755Z,25.64
2022-09-04T10:52:53.298Z,25.16
2022-09-04T10:57:28.255Z,25.76
2022-09-04T11:01:44.381Z,25.82
2022-09-04T11:06:15.727Z,25.33
2022-09-04T11:10:25.109Z,26.32
2022-09-04T11:14:54.457Z,26.22
2022-09-04T11:19:10.416Z,25.69
2022-09-04T11:23:11.955Z,25.56
2022-09-04T11:27:45.610Z,25.73
2022-09-04T11:31:56.077Z,26.04
2022-09-04T11:36:18.909Z,26.27
2022-09-04T11:40:42.424Z,26.44
2022-09-04T11:44:50.509Z,26.47
2022-09-04T11:49:09.685Z,26.63
2022-09-04T11:53:26.716Z,27.15
2022-09-04T11:57:46.235Z,27.48
2022-09-04T12:02:15.219Z,26.54
2022-09-04T12:06:25.855Z,26.41
2022-09-04T12:10:42.923Z,25.67
2022-09-04T12:15:07.434Z,26.59
2022-09-04T12:19:33.040Z,27.56
2022-09-04T12:23:52.928Z,28.29
2022-09-04T12:27:57.108Z,27.15
2022-09-04T12:32:15.873Z,27.27
2022-09-04T12:36:59.261Z,26.98
2022-09-04T12:41:35.855Z,27.00
2022-09-04T12:46:10.659Z,26.83
2022-09-04T12:50:19.281Z,27.91
2022-09-04T12:54:37.127Z,27.90
2022-09-04T12:58:59.292Z,26.39
2022-09-04T13:03:14.739Z,26.34
2022-09-04T13:07:28.524Z,25.72
2022-09-04T13:12:03.185Z,26.79
2022-09-04T13:16:29.340Z,26.34
2022-09-04T13:20:59.438Z,26.07
2022-09-04T13:25:08.432Z,25.75
2022-09-04T13:29:24.360Z,25.98
2022-09-04T13:33:56.793Z,26.03
2022-09-04T13:38:22.074Z,26.44
2022-09-04T13:42:52.192Z,27.56
2022-09-04T13:47:12.200Z,26.37
2022-09-04T13:51:25.322Z,25.83
2022-09-04T13:55:41.100Z,25.53
2022-09-04T13:59:46.140Z,25.33
2022-09-04T14:03:52.708Z,25.76
2022-09-04T14:08:06.381Z,25.99
2022-09-04T14:12:18.486Z,25.72
2022-09-04T14:16:23.744Z,25.90
2022-09-04T14:20:30.994Z,25.09
2022-09-04T14:24:55.863Z,26.11
2022-09-04T14:28:57.452Z,25.71
2022-09-04T14:33:07.679Z,26.72
2022-09-04T14:37:27.536Z,25.66
2022-09-04T14:41:45.034Z,25.79
2022-09-04T14:46:12.073Z,25.55
2022-09-04T14:50:17.229Z,25.03
2022-09-04T14:54:27.000Z,25.36
2022-09-04T14:58:37.120Z,25.52
2022-09-04T15:03:04.999Z,25.10
2022-09-04T15:07:49.487Z,24.85
2022-09-04T15:12:14.470Z,24.79
2022-09-04T15:16:29.597Z,24.73
2022-09-04T15:20:36.000Z,25.13
2022-09-04T15:24:43.468Z,25.03
2022-09-04T15:28:55.285Z,24.73
2022-09-04T15:33:23.584Z,25.68
2022-09-04T15:37:28.205Z,24.90
2022-09-04T15:41:33.002Z,24.29
2022-09-04T15:45:58.936Z,24.29
2022-09-04T15:50:05.842Z,24.16
2022-09-04T15:54:10.157Z,24.48
2022-09-04T15:58:23.988Z,24.70
2022-09-04T16:02:36.598Z,23.79
2022-09-04T16:06:49.531Z,24.16
2022-09-04T16:11:12.325Z,23.53
2022-09-04T16:15:43.189Z,23.60
2022-09-04T16:19:54.394Z,23.26
2022-09-04T16:23:59.672Z,22.73
2022-09-04T16:28:15.001Z,22.80
2022-09-04T16:32:22.555Z,23.14
2022-09-04T16:36:28.934Z,22.96
2022-09-04T16:40:36.437Z,22.68
2022-09-04T16:45:07.073Z,22.61
2022-09-04T16:49:25.265Z,22.49
2022-09-04T16:53:41.068Z,22.32
2022-09-04T16:58:17.568Z,22.42
2022-09-04T17:02:44.712Z,22.73
2022-09-04T17:07:13.074Z,22.25
2022-09-04T17:11:33.435Z,22.36
2022-09-04T17:15:44.526Z,22.25
2022-09-04T17:20:08.258Z,21.64
2022-09-04T17:29:03.084Z,21.70
2022-09-04T17:29:10.497Z,21.43
2022-09-04T17:36:36.302Z,21.57
2022-09-04T17:40:57.148Z,21.77
2022-09-04T17:43:23.604Z,21.27
2022-09-04T17:47:33.654Z,21.09
2022-09-04T17:51:35.596Z,21.22
2022-09-04T17:55:47.368Z,21.33
2022-09-04T18:00:06.317Z,21.41
2022-09-04T18:04:24.396Z,21.52
2022-09-04T18:08:41.907Z,21.41
2022-09-04T18:13:36.521Z,20.72
2022-09-04T18:17:43.952Z,20.65
2022-09-04T18:22:10.075Z,20.65
2022-09-04T18:26:45.023Z,20.51
2022-09-04T18:37:11.648Z,20.46
2022-09-04T18:37:26.391Z,20.56
2022-09-04T18:40:12.593Z,20.71
2022-09-04T18:50:25.280Z,20.43
2022-09-04T18:50:45.240Z,20.24
2022-09-04T18:53:19.727Z,20.26
2022-09-04T18:57:37.372Z,20.05
2022-09-04T19:01:44.769Z,19.97
2022-09-04T19:05:48.632Z,20.03
2022-09-04T19:10:08.227Z,19.71
2022-09-04T19:14:18.844Z,19.75
2022-09-04T19:18:26.730Z,19.62
2022-09-04T19:22:49.173Z,19.21
2022-09-04T19:26:56.677Z,19.45
2022-09-04T19:31:04.039Z,19.23
2022-09-04T19:35:22.421Z,19.22
2022-09-04T19:46:01.339Z,19.50
2022-09-04T19:46:19.780Z,19.19
2022-09-04T19:49:03.645Z,19.06
2022-09-04T19:53:44.992Z,19.20
2022-09-04T19:58:15.323Z,19.55
2022-09-04T20:02:22.497Z,19.06
2022-09-04T20:06:54.421Z,19.00
2022-09-04T20:11:11.826Z,18.78
2022-09-04T20:15:40.860Z,18.98
2022-09-04T20:19:47.925Z,18.94
2022-09-04T20:24:07.849Z,19.31
2022-09-04T20:29:03.479Z,18.96
2022-09-04T20:33:23.900Z,18.84
2022-09-04T20:37:44.410Z,18.73
2022-09-04T20:41:54.516Z,19.36
2022-09-04T20:50:34.691Z,19.35
2022-09-04T20:52:53.514Z,19.11
2022-09-04T20:55:11.620Z,19.53
2022-09-04T21:03:10.269Z,19.14
2022-09-04T21:04:14.411Z,19.08
2022-09-04T21:08:40.204Z,19.25
2022-09-04T21:12:52.578Z,19.19
2022-09-04T21:17:35.170Z,19.66
2022-09-04T21:22:02.311Z,19.48
2022-09-04T21:26:23.921Z,19.70
2022-09-04T21:31:01.899Z,19.80
2022-09-04T21:35:18.306Z,19.95
2022-09-04T21:39:36.428Z,19.78
2022-09-04T21:43:49.886Z,19.71
2022-09-04T21:48:39.190Z,20.19
2022-09-04T21:52:56.350Z,19.75
2022-09-04T22:02:40.791Z,20.13
2022-09-04T22:02:57.630Z,19.71
2022-09-04T22:11:51.636Z,19.63
2022-09-04T22:13:46.007Z,19.87
2022-09-04T22:16:29.369Z,20.00
2022-09-04T22:20:53.854Z,19.83
2022-09-04T22:25:28.924Z,19.77
2022-09-04T22:29:52.670Z,20.04
2022-09-04T22:34:27.378Z,20.10
2022-09-04T22:38:50.988Z,20.18
2022-09-04T22:43:12.837Z,20.17
2022-09-04T22:47:34.916Z,20.49
2022-09-04T22:52:09.818Z,20.40
2022-09-04T22:56:34.034Z,20.15
2022-09-04T23:01:20.361Z,20.18
2022-09-04T23:05:33.814Z,20.28
2022-09-04T23:13:48.168Z,19.88
2022-09-04T23:14:47.146Z,20.28
2022-09-04T23:19:50.201Z,20.33
2022-09-04T23:26:42.065Z,20.55
2022-09-04T23:28:34.742Z,20.20
2022-09-04T23:33:14.935Z,20.38
2022-09-04T23:38:05.535Z,20.79
2022-09-04T23:42:45.216Z,20.64
2022-09-04T23:46:58.509Z,20.48
2022-09-04T23:51:10.214Z,20.18
2022-09-04T23:55:39.948Z,20.50
